createdAt,value
2022-12-20T00:01:58.273Z,98276.81
2022-12-20T00:04:26.979Z,98274.28
2022-12-20T00:06:55.509Z,98256.50
2022-12-20T00:09:25.484Z,98266.56
2022-12-20T00:11:54.324Z,98255.50
2022-12-20T00:14:22.916Z,98258.00
2022-12-20T00:16:51.431Z,98246.88
2022-12-20T00:19:21.331Z,98249.41
2022-12-20T00:21:49.954Z,98252.72
2022-12-20T00:24:25.619Z,98256.94
2022-12-20T00:26:54.671Z,98252.69
2022-12-20T00:29:23.167Z,98257.78
2022-12-20T00:31:51.915Z,98249.41
2022-12-20T00:34:21.958Z,98257.13
2022-12-20T00:36:50.830Z,98256.34
2022-12-20T00:39:19.426Z,98252.13
2022-12-20T00:41:47.957Z,98234.25
2022-12-20T00:44:16.491Z,98228.13
2022-12-20T00:46:45.214Z,98229.72
2022-12-20T00:49:13.827Z,98242.16
2022-12-20T00:51:43.740Z,98231.94
2022-12-20T00:54:12.489Z,98241.31
2022-12-20T00:56:41.037Z,98242.16
2022-12-20T00:59:10.112Z,98239.59
2022-12-20T01:01:38.931Z,98239.59
2022-12-20T01:04:08.417Z,98242.91
2022-12-20T01:06:38.048Z,98242.09
2022-12-20T01:09:08.507Z,98230.22
2022-12-20T01:11:38.492Z,98236.06
2022-12-20T01:14:09.699Z,98232.63
2022-12-20T01:16:41.136Z,98232.50
2022-12-20T01:19:12.430Z,98234.88
2022-12-20T01:21:44.638Z,98235.69
2022-12-20T01:24:16.193Z,98234.78
2022-12-20T01:26:45.725Z,98221.13
2022-12-20T01:29:15.621Z,98214.34
2022-12-20T01:31:44.862Z,98211.81
2022-12-20T01:34:14.356Z,98208.16
2022-12-20T01:36:43.053Z,98211.56
2022-12-20T01:39:16.299Z,98242.06
2022-12-20T01:41:46.932Z,98242.94
2022-12-20T01:44:53.505Z,98234.59
2022-12-20T01:47:23.182Z,98225.31
2022-12-20T01:49:55.374Z,98234.78
2022-12-20T01:52:29.093Z,98238.97
2022-12-20T01:55:05.543Z,98230.44
2022-12-20T01:57:42.843Z,98231.28
2022-12-20T02:00:12.893Z,98234.69
2022-12-20T02:02:49.399Z,98229.59
2022-12-20T02:05:20.735Z,98223.66
2022-12-20T02:07:52.911Z,98215.16
2022-12-20T02:10:27.477Z,98209.94
2022-12-20T02:13:05.718Z,98196.28
2022-12-20T02:15:47.641Z,98200.44
2022-12-20T02:18:23.319Z,98194.59
2022-12-20T02:21:13.670Z,98184.41
2022-12-20T02:24:13.474Z,98192.03
2022-12-20T02:27:18.868Z,98184.56
2022-12-20T02:30:07.876Z,98172.69
2022-12-20T02:32:41.706Z,98169.34
2022-12-20T02:35:13.894Z,98178.69
2022-12-20T02:37:50.753Z,98167.63
2022-12-20T02:40:24.759Z,98154.88
2022-12-20T02:42:57.558Z,98147.13
2022-12-20T02:45:30.084Z,98141.94
2022-12-20T02:48:01.492Z,98137.63
2022-12-20T02:50:36.903Z,98130.94
2022-12-20T02:53:08.138Z,98117.28
2022-12-20T02:55:44.935Z,98118.00
2022-12-20T02:58:22.487Z,98132.44
2022-12-20T03:00:55.608Z,98135.94
2022-12-20T03:03:24.440Z,98128.38
2022-12-20T03:05:55.993Z,98119.09
2022-12-20T03:08:25.851Z,98127.56
2022-12-20T03:10:56.210Z,98125.03
2022-12-20T03:13:25.627Z,98125.00
2022-12-20T03:16:02.037Z,98129.09
2022-12-20T03:18:30.980Z,98128.25
2022-12-20T03:21:00.086Z,98130.78
2022-12-20T03:23:28.841Z,98131.63
2022-12-20T03:25:57.383Z,98136.66
2022-12-20T03:28:33.221Z,98123.03
2022-12-20T03:31:03.715Z,98121.31
2022-12-20T03:33:40.557Z,98133.97
2022-12-20T03:36:10.371Z,98126.31
2022-12-20T03:38:39.309Z,98122.69
2022-12-20T03:41:10.176Z,98121.03
2022-12-20T03:43:39.713Z,98132.78
2022-12-20T03:46:10.025Z,98113.31
2022-12-20T03:48:40.003Z,98106.56
2022-12-20T03:51:11.931Z,98095.41
2022-12-20T03:53:41.010Z,98108.16
2022-12-20T03:56:10.414Z,98102.94
2022-12-20T03:58:39.356Z,98098.66
2022-12-20T04:01:20.528Z,98108.91
2022-12-20T04:03:50.275Z,98105.50
2022-12-20T04:06:19.547Z,98110.59
2022-12-20T04:08:48.233Z,98103.81
2022-12-20T04:11:24.297Z,98101.28
2022-12-20T04:14:02.428Z,98096.13
2022-12-20T04:16:33.092Z,98101.06
2022-12-20T04:19:03.407Z,98101.97
2022-12-20T04:21:37.354Z,98095.81
2022-12-20T04:24:07.748Z,98093.13
2022-12-20T04:26:46.035Z,98095.63
2022-12-20T04:29:15.922Z,98098.16
2022-12-20T04:31:47.011Z,98093.09
2022-12-20T04:34:16.735Z,98087.06
2022-12-20T04:36:45.522Z,98078.78
2022-12-20T04:39:20.483Z,98068.59
2022-12-20T04:42:15.017Z,98065.44
2022-12-20T04:44:43.714Z,98060.31
2022-12-20T04:47:15.170Z,98061.16
2022-12-20T04:49:43.675Z,98051.03
2022-12-20T04:52:29.519Z,98065.31
2022-12-20T04:54:58.106Z,98060.34
2022-12-20T04:57:31.161Z,98071.41
2022-12-20T05:00:00.823Z,98068.06
2022-12-20T05:02:31.231Z,98069.84
2022-12-20T05:05:06.363Z,98056.97
2022-12-20T05:07:41.375Z,98051.88
2022-12-20T05:10:10.996Z,98052.69
2022-12-20T05:12:40.789Z,98046.78
2022-12-20T05:15:14.384Z,98054.34
2022-12-20T05:17:45.297Z,98048.50
2022-12-20T05:20:15.360Z,98050.16
2022-12-20T05:23:06.364Z,98046.88
2022-12-20T05:25:54.906Z,98055.25
2022-12-20T05:28:23.652Z,98050.94
2022-12-20T05:30:52.569Z,98044.13
2022-12-20T05:33:24.042Z,98037.31
2022-12-20T05:35:56.134Z,98041.53
2022-12-20T05:38:25.878Z,98044.78
2022-12-20T05:40:54.768Z,98035.44
2022-12-20T05:43:23.340Z,98030.34
2022-12-20T05:45:54.274Z,98019.34
2022-12-20T05:48:33.964Z,98009.13
2022-12-20T05:51:02.690Z,98005.56
2022-12-20T05:53:33.441Z,98008.00
2022-12-20T05:56:06.086Z,98007.81
2022-12-20T05:58:37.922Z,98002.78
2022-12-20T06:01:10.403Z,98011.28
2022-12-20T06:03:41.632Z,98013.81
2022-12-20T06:06:16.540Z,98014.63
2022-12-20T06:08:49.833Z,98022.44
2022-12-20T06:11:29.688Z,98027.63
2022-12-20T06:14:05.673Z,98018.19
2022-12-20T06:16:36.929Z,98019.34
2022-12-20T06:19:09.146Z,98016.06
2022-12-20T06:21:38.228Z,98013.59
2022-12-20T06:24:08.367Z,98003.56
2022-12-20T06:26:39.962Z,98012.91
2022-12-20T06:29:14.456Z,98015.56
2022-12-20T06:31:48.661Z,98011.34
2022-12-20T06:34:19.238Z,98006.25
2022-12-20T06:36:47.942Z,98015.13
2022-12-20T06:39:21.870Z,98016.13
2022-12-20T06:42:07.037Z,98016.31
2022-12-20T06:44:37.616Z,98017.28
2022-12-20T06:47:07.274Z,98026.03
2022-12-20T06:49:38.363Z,98022.81
2022-12-20T06:52:13.600Z,98025.50
2022-12-20T06:54:53.355Z,98023.88
2022-12-20T06:57:23.076Z,98029.09
2022-12-20T06:59:53.144Z,98029.97
2022-12-20T07:02:21.865Z,98035.03
2022-12-20T07:04:52.066Z,98031.72
2022-12-20T07:07:20.602Z,98019.03
2022-12-20T07:09:49.187Z,98014.91
2022-12-20T07:12:17.822Z,98015.72
2022-12-20T07:14:46.385Z,98022.56
2022-12-20T07:17:15.034Z,98009.91
2022-12-20T07:19:50.240Z,98010.78
2022-12-20T07:22:20.965Z,98006.63
2022-12-20T07:24:50.316Z,98013.38
2022-12-20T07:27:19.034Z,98017.59
2022-12-20T07:29:49.739Z,98029.41
2022-12-20T07:32:18.541Z,98022.59
2022-12-20T07:34:47.166Z,98021.72
2022-12-20T07:37:15.678Z,98027.59
2022-12-20T07:39:45.979Z,98029.34
2022-12-20T07:42:15.212Z,98020.03
2022-12-20T07:44:44.802Z,98019.16
2022-12-20T07:47:13.452Z,98019.16
2022-12-20T07:49:42.074Z,98013.22
2022-12-20T07:52:14.013Z,98011.59
2022-12-20T07:54:48.328Z,98014.97
2022-12-20T07:57:21.437Z,98021.78
2022-12-20T07:59:52.408Z,98027.75
2022-12-20T08:02:25.928Z,98022.72
2022-12-20T08:04:56.873Z,98031.97
2022-12-20T08:07:25.721Z,98029.44
2022-12-20T08:09:55.712Z,98031.09
2022-12-20T08:12:25.978Z,98020.00
2022-12-20T08:14:56.314Z,98021.59
2022-12-20T08:17:25.409Z,98021.50
2022-12-20T08:19:53.975Z,98018.06
2022-12-20T08:22:23.109Z,98033.19
2022-12-20T08:24:51.634Z,98031.31
2022-12-20T08:27:21.642Z,98038.81
2022-12-20T08:29:50.529Z,98033.66
2022-12-20T08:32:19.114Z,98041.16
2022-12-20T08:34:48.472Z,98039.38
2022-12-20T08:37:17.598Z,98035.97
2022-12-20T08:39:46.651Z,98030.84
2022-12-20T08:42:16.012Z,98033.38
2022-12-20T08:44:47.253Z,98024.94
2022-12-20T08:47:15.636Z,98022.38
2022-12-20T08:49:47.685Z,98026.56
2022-12-20T08:52:16.821Z,98012.16
2022-12-20T08:54:45.485Z,98007.81
2022-12-20T08:57:14.084Z,98013.72
2022-12-20T08:59:42.690Z,98007.72
2022-12-20T09:02:12.724Z,98005.06
2022-12-20T09:04:42.040Z,97988.00
2022-12-20T09:07:10.750Z,97988.69
2022-12-20T09:09:39.281Z,97996.19
2022-12-20T09:12:08.414Z,97993.56
2022-12-20T09:14:36.938Z,97992.59
2022-12-20T09:17:06.380Z,97995.84
2022-12-20T09:19:36.345Z,97991.47
2022-12-20T09:22:05.541Z,97982.84
2022-12-20T09:24:34.138Z,97990.31
2022-12-20T09:27:02.683Z,97980.81
2022-12-20T09:29:35.516Z,97979.06
2022-12-20T09:32:04.878Z,97988.25
2022-12-20T09:34:33.402Z,97987.38
2022-12-20T09:37:03.305Z,97984.84
2022-12-20T09:39:31.908Z,97976.34
2022-12-20T09:42:00.912Z,97974.56
2022-12-20T09:44:32.846Z,97977.06
2022-12-20T09:47:10.467Z,97970.22
2022-12-20T09:49:43.087Z,97966.81
2022-12-20T09:52:26.246Z,97962.50
2022-12-20T09:55:02.878Z,97966.63
2022-12-20T09:57:47.220Z,97958.81
2022-12-20T10:00:18.332Z,97945.81
2022-12-20T10:03:00.568Z,97942.97
2022-12-20T10:05:41.842Z,97936.53
2022-12-20T10:08:24.733Z,97946.19
2022-12-20T10:10:56.331Z,97934.63
2022-12-20T10:13:38.912Z,97935.16
2022-12-20T10:16:22.459Z,97924.94
2022-12-20T10:19:00.515Z,97918.00
2022-12-20T10:21:38.930Z,97916.03
2022-12-20T10:24:14.462Z,97919.88
2022-12-20T10:26:43.431Z,97890.59
2022-12-20T10:29:12.421Z,97893.59
2022-12-20T10:31:41.424Z,97896.28
2022-12-20T10:34:10.225Z,97892.69
2022-12-20T10:36:39.943Z,97884.03
2022-12-20T10:39:11.426Z,97887.25
2022-12-20T10:41:49.958Z,97883.91
2022-12-20T10:44:24.924Z,97878.06
2022-12-20T10:46:55.976Z,97875.69
2022-12-20T10:49:31.566Z,97883.84
2022-12-20T10:52:03.061Z,97885.56
2022-12-20T10:54:35.509Z,97878.81
2022-12-20T10:57:15.022Z,97869.56
2022-12-20T10:59:47.030Z,97867.00
2022-12-20T11:02:30.575Z,97860.22
2022-12-20T11:05:06.299Z,97858.72
2022-12-20T11:07:35.863Z,97855.50
2022-12-20T11:10:23.831Z,97852.09
2022-12-20T11:12:56.584Z,97847.91
2022-12-20T11:15:29.567Z,97846.25
2022-12-20T11:18:09.649Z,97839.78
2022-12-20T11:20:43.721Z,97847.63
2022-12-20T11:23:26.447Z,97846.84
2022-12-20T11:26:10.707Z,97854.91
2022-12-20T11:28:53.802Z,97851.56
2022-12-20T11:31:35.643Z,97844.81
2022-12-20T11:34:20.619Z,97827.72
2022-12-20T11:37:10.714Z,97830.16
2022-12-20T11:39:46.719Z,97814.59
2022-12-20T11:42:26.387Z,97820.44
2022-12-20T11:45:09.395Z,97811.84
2022-12-20T11:47:57.499Z,97810.88
2022-12-20T11:50:47.741Z,97803.91
2022-12-20T11:53:23.958Z,97800.41
2022-12-20T11:55:55.337Z,97787.44
2022-12-20T11:58:31.013Z,97792.44
2022-12-20T12:01:05.175Z,97782.09
2022-12-20T12:03:36.808Z,97788.88
2022-12-20T12:06:10.497Z,97793.94
2022-12-20T12:08:47.124Z,97790.34
2022-12-20T12:12:03.870Z,97795.38
2022-12-20T12:14:19.348Z,97787.75
2022-12-20T12:16:54.958Z,97790.31
2022-12-20T12:19:27.832Z,97788.66
2022-12-20T12:22:02.633Z,97790.44
2022-12-20T12:24:36.123Z,97783.53
2022-12-20T12:27:04.763Z,97775.06
2022-12-20T12:29:35.727Z,97785.06
2022-12-20T12:32:09.824Z,97773.91
2022-12-20T12:34:53.751Z,97784.47
2022-12-20T12:37:37.469Z,97771.38
2022-12-20T12:40:30.603Z,97780.63
2022-12-20T12:43:23.521Z,97782.56
2022-12-20T12:45:58.075Z,97780.03
2022-12-20T12:48:34.266Z,97761.19
2022-12-20T12:51:04.046Z,97756.88
2022-12-20T12:53:36.683Z,97756.94
2022-12-20T12:56:46.729Z,97753.38
2022-12-20T12:59:26.157Z,97762.63
2022-12-20T13:02:17.846Z,97761.59
2022-12-20T13:04:58.100Z,97774.81
2022-12-20T13:07:28.935Z,97772.81
2022-12-20T13:09:57.470Z,97769.47
2022-12-20T13:12:58.675Z,97760.09
2022-12-20T13:15:47.713Z,97752.34
2022-12-20T13:18:38.842Z,97744.38
2022-12-20T13:21:38.375Z,97753.78
2022-12-20T13:24:48.400Z,97758.09
2022-12-20T13:27:22.627Z,97747.50
2022-12-20T13:30:03.570Z,97741.50
2022-12-20T13:33:04.870Z,97735.38
2022-12-20T13:35:45.388Z,97733.59
2022-12-20T13:38:52.086Z,97735.28
2022-12-20T13:41:34.730Z,97746.34
2022-12-20T13:44:33.963Z,97735.22
2022-12-20T13:47:08.871Z,97746.34
2022-12-20T13:49:39.809Z,97740.41
2022-12-20T13:52:28.509Z,97748.19
2022-12-20T13:55:00.581Z,97751.56
2022-12-20T13:57:32.888Z,97749.94
2022-12-20T14:00:07.615Z,97751.56
2022-12-20T14:02:42.234Z,97751.63
2022-12-20T14:05:18.584Z,97746.59
2022-12-20T14:07:52.210Z,97740.69
2022-12-20T14:10:23.861Z,97743.25
2022-12-20T14:12:53.485Z,97724.47
2022-12-20T14:15:28.004Z,97715.88
2022-12-20T14:17:56.815Z,97714.13
2022-12-20T14:20:31.123Z,97708.28
2022-12-20T14:23:06.277Z,97703.28
2022-12-20T14:25:44.368Z,97689.53
2022-12-20T14:28:27.422Z,97691.28
2022-12-20T14:30:57.430Z,97690.50
2022-12-20T14:33:32.132Z,97683.75
2022-12-20T14:36:10.706Z,97694.28
2022-12-20T14:38:41.743Z,97693.50
2022-12-20T14:41:36.091Z,97686.59
2022-12-20T14:44:16.626Z,97681.69
2022-12-20T14:46:50.654Z,97677.28
2022-12-20T14:49:23.874Z,97670.03
2022-12-20T14:51:54.072Z,97670.63
2022-12-20T14:57:24.339Z,97661.84
2022-12-20T15:00:02.311Z,97653.31
2022-12-20T15:02:40.288Z,97646.91
2022-12-20T15:05:11.111Z,97645.56
2022-12-20T15:07:42.716Z,97658.06
2022-12-20T15:10:13.429Z,97664.50
2022-12-20T15:12:42.793Z,97662.28
2022-12-20T15:15:28.907Z,97663.81
2022-12-20T15:17:58.107Z,97667.19
2022-12-20T15:20:26.912Z,97653.84
2022-12-20T15:22:55.674Z,97647.69
2022-12-20T15:25:27.059Z,97654.69
2022-12-20T15:27:55.678Z,97644.50
2022-12-20T15:30:24.401Z,97643.91
2022-12-20T15:32:55.925Z,97653.25
2022-12-20T15:35:25.666Z,97649.38
2022-12-20T15:37:54.277Z,97648.91
2022-12-20T15:40:23.362Z,97643.13
2022-12-20T15:42:53.271Z,97649.00
2022-12-20T15:45:22.787Z,97644.38
2022-12-20T15:47:51.247Z,97635.91
2022-12-20T15:50:20.056Z,97643.66
2022-12-20T15:52:48.805Z,97647.13
2022-12-20T15:55:17.587Z,97640.16
2022-12-20T15:57:47.148Z,97648.38
2022-12-20T16:00:18.134Z,97639.31
2022-12-20T16:02:49.518Z,97625.19
2022-12-20T16:05:18.419Z,97629.66
2022-12-20T16:07:47.104Z,97634.00
2022-12-20T16:10:16.150Z,97642.94
2022-12-20T16:12:44.829Z,97643.31
2022-12-20T16:15:21.113Z,97652.66
2022-12-20T16:17:49.879Z,97648.44
2022-12-20T16:20:19.357Z,97651.47
2022-12-20T16:22:48.081Z,97657.84
2022-12-20T16:25:26.229Z,97651.94
2022-12-20T16:27:54.951Z,97644.44
2022-12-20T16:30:25.645Z,97644.66
2022-12-20T16:32:55.080Z,97637.22
2022-12-20T16:35:31.691Z,97636.22
2022-12-20T16:38:01.466Z,97645.66
2022-12-20T16:40:34.570Z,97645.56
2022-12-20T16:43:03.284Z,97650.63
2022-12-20T16:45:34.639Z,97644.25
2022-12-20T16:48:05.431Z,97642.25
2022-12-20T16:50:35.902Z,97649.69
2022-12-20T16:53:04.631Z,97640.53
2022-12-20T16:55:39.651Z,97641.97
2022-12-20T17:00:36.322Z,97643.06
2022-12-20T17:03:06.958Z,97638.66
2022-12-20T17:05:39.475Z,97629.75
2022-12-20T17:10:54.453Z,97648.72
2022-12-20T17:13:23.463Z,97648.78
2022-12-20T17:15:56.797Z,97638.41
2022-12-20T17:18:25.804Z,97639.19
2022-12-20T17:20:54.522Z,97650.34
2022-12-20T17:26:09.775Z,97647.84
2022-12-20T17:31:07.831Z,97658.88
2022-12-20T17:33:37.291Z,97657.75
2022-12-20T17:36:06.272Z,97648.66
2022-12-20T17:38:35.423Z,97652.78
2022-12-20T17:42:27.173Z,97638.91
